createdAt,value
2018-03-26T00:00:10.275Z,7.88888888889
2018-03-26T00:00:22.425Z,7.88888888889
2018-03-26T00:00:34.591Z,7.88888888889
2018-03-26T00:00:47.048Z,7.83333333333
2018-03-26T00:00:59.183Z,7.88888888889
2018-03-26T00:01:11.326Z,7.88888888889
2018-03-26T00:01:23.490Z,7.83333333333
2018-03-26T00:01:35.628Z,7.88888888889
2018-03-26T00:01:47.787Z,7.88888888889
2018-03-26T00:01:59.919Z,7.88888888889
2018-03-26T00:02:12.073Z,7.88888888889
2018-03-26T00:02:24.373Z,7.88888888889
2018-03-26T00:02:36.586Z,7.88888888889
2018-03-26T00:02:48.741Z,7.83333333333
2018-03-26T00:03:00.868Z,7.88888888889
2018-03-26T00:03:13.007Z,7.88888888889
2018-03-26T00:03:25.125Z,7.88888888889
2018-03-26T00:03:37.314Z,7.88888888889
2018-03-26T00:03:49.459Z,7.88888888889
2018-03-26T00:04:01.688Z,7.88888888889
2018-03-26T00:04:13.846Z,7.88888888889
2018-03-26T00:04:26.003Z,7.94444444444
2018-03-26T00:04:38.144Z,7.94444444444
2018-03-26T00:04:50.295Z,7.88888888889
2018-03-26T00:05:02.442Z,7.88888888889
2018-03-26T00:05:14.592Z,7.88888888889
2018-03-26T00:05:26.743Z,7.88888888889
2018-03-26T00:05:38.876Z,7.88888888889
2018-03-26T00:05:51.039Z,7.94444444444
2018-03-26T00:06:03.186Z,7.88888888889
2018-03-26T00:06:15.323Z,7.88888888889
2018-03-26T00:06:27.474Z,7.83333333333
2018-03-26T00:06:39.621Z,7.88888888889
2018-03-26T00:06:51.789Z,7.88888888889
2018-03-26T00:07:03.946Z,7.88888888889
2018-03-26T00:07:16.075Z,7.88888888889
2018-03-26T00:07:28.230Z,7.88888888889
2018-03-26T00:07:40.503Z,7.88888888889
2018-03-26T00:07:52.632Z,7.94444444444
2018-03-26T00:08:04.784Z,7.88888888889
2018-03-26T00:08:16.911Z,7.88888888889
2018-03-26T00:08:29.065Z,7.88888888889
2018-03-26T00:08:41.238Z,7.88888888889
2018-03-26T00:08:53.395Z,7.88888888889
2018-03-26T00:09:05.571Z,7.88888888889
2018-03-26T00:09:17.718Z,7.94444444444
2018-03-26T00:09:29.849Z,7.88888888889
2018-03-26T00:09:41.994Z,7.88888888889
2018-03-26T00:09:54.139Z,7.88888888889
2018-03-26T00:10:06.311Z,7.88888888889
2018-03-26T00:10:18.470Z,7.88888888889
2018-03-26T00:10:30.606Z,7.88888888889
2018-03-26T00:10:42.731Z,7.88888888889
2018-03-26T00:10:54.867Z,7.88888888889
2018-03-26T00:11:07.030Z,7.88888888889
2018-03-26T00:11:19.174Z,7.88888888889
2018-03-26T00:11:31.316Z,7.88888888889
2018-03-26T00:11:43.513Z,7.88888888889
2018-03-26T00:11:55.672Z,7.94444444444
2018-03-26T00:12:07.862Z,7.88888888889
2018-03-26T00:12:20.051Z,7.88888888889
2018-03-26T00:12:32.263Z,7.88888888889
2018-03-26T00:12:44.436Z,7.88888888889
2018-03-26T00:12:56.729Z,7.88888888889
2018-03-26T00:13:08.884Z,7.88888888889
2018-03-26T00:13:21.034Z,7.88888888889
2018-03-26T00:13:33.158Z,7.88888888889
2018-03-26T00:13:45.284Z,7.88888888889
2018-03-26T00:13:57.427Z,7.88888888889
2018-03-26T00:14:09.573Z,7.88888888889
2018-03-26T00:14:21.711Z,7.88888888889
2018-03-26T00:14:33.846Z,7.88888888889
2018-03-26T00:14:45.983Z,7.88888888889
2018-03-26T00:14:58.141Z,7.83333333333
2018-03-26T00:15:10.304Z,7.88888888889
2018-03-26T00:15:22.433Z,7.88888888889
2018-03-26T00:15:34.607Z,7.88888888889
2018-03-26T00:15:46.773Z,7.88888888889
2018-03-26T00:15:58.913Z,7.88888888889
2018-03-26T00:16:11.088Z,7.88888888889
2018-03-26T00:16:23.237Z,7.88888888889
2018-03-26T00:16:35.379Z,7.83333333333
2018-03-26T00:16:47.507Z,7.88888888889
2018-03-26T00:16:59.700Z,7.88888888889
2018-03-26T00:17:11.843Z,7.83333333333
2018-03-26T00:17:23.979Z,7.94444444444
2018-03-26T00:17:36.119Z,7.88888888889
2018-03-26T00:17:48.289Z,7.88888888889
2018-03-26T00:18:00.431Z,7.88888888889
2018-03-26T00:18:12.561Z,7.88888888889
2018-03-26T00:18:24.689Z,7.88888888889
2018-03-26T00:18:36.882Z,7.88888888889
2018-03-26T00:18:49.005Z,7.88888888889
2018-03-26T00:19:01.157Z,7.83333333333
2018-03-26T00:19:13.306Z,7.83333333333
2018-03-26T00:19:25.516Z,7.88888888889
2018-03-26T00:19:37.660Z,7.88888888889
2018-03-26T00:19:49.801Z,7.88888888889
2018-03-26T00:20:01.984Z,7.88888888889
2018-03-26T00:20:14.144Z,7.83333333333
2018-03-26T00:20:26.295Z,7.83333333333
2018-03-26T00:20:38.434Z,7.88888888889
2018-03-26T00:20:50.579Z,7.83333333333
2018-03-26T00:21:02.731Z,7.83333333333
2018-03-26T00:21:14.887Z,7.83333333333
2018-03-26T00:21:27.015Z,7.83333333333
2018-03-26T00:21:39.142Z,7.83333333333
2018-03-26T00:21:51.504Z,7.83333333333
2018-03-26T00:22:03.769Z,7.83333333333
2018-03-26T00:22:15.924Z,7.83333333333
2018-03-26T00:22:28.071Z,7.83333333333
2018-03-26T00:22:40.248Z,7.88888888889
2018-03-26T00:22:52.418Z,7.83333333333
2018-03-26T00:23:04.562Z,7.83333333333
2018-03-26T00:23:16.705Z,7.88888888889
2018-03-26T00:23:28.847Z,7.83333333333
2018-03-26T00:23:40.997Z,7.88888888889
2018-03-26T00:23:53.144Z,7.83333333333
2018-03-26T00:24:05.292Z,7.83333333333
2018-03-26T00:24:17.446Z,7.83333333333
2018-03-26T00:24:29.602Z,7.83333333333
2018-03-26T00:24:41.752Z,7.83333333333
2018-03-26T00:24:53.912Z,7.83333333333
2018-03-26T00:25:06.101Z,7.88888888889
2018-03-26T00:25:18.249Z,7.83333333333
2018-03-26T00:25:30.369Z,7.83333333333
2018-03-26T00:25:42.537Z,7.83333333333
2018-03-26T00:25:54.698Z,7.83333333333
2018-03-26T00:26:06.867Z,7.83333333333
2018-03-26T00:26:18.996Z,7.83333333333
2018-03-26T00:26:31.185Z,7.88888888889
2018-03-26T00:26:43.309Z,7.83333333333
2018-03-26T00:26:55.485Z,7.83333333333
2018-03-26T00:27:07.638Z,7.83333333333
2018-03-26T00:27:20.207Z,7.83333333333
2018-03-26T00:27:32.342Z,7.83333333333
2018-03-26T00:27:44.477Z,7.83333333333
2018-03-26T00:27:56.783Z,7.83333333333
2018-03-26T00:28:08.951Z,7.83333333333
2018-03-26T00:28:21.123Z,7.83333333333
2018-03-26T00:28:33.252Z,7.83333333333
2018-03-26T00:28:45.406Z,7.83333333333
2018-03-26T00:28:57.536Z,7.83333333333
2018-03-26T00:29:09.738Z,7.83333333333
2018-03-26T00:29:21.880Z,7.83333333333
2018-03-26T00:29:34.009Z,7.83333333333
2018-03-26T00:29:46.140Z,7.88888888889
2018-03-26T00:29:58.317Z,7.83333333333
2018-03-26T00:30:10.493Z,7.83333333333
2018-03-26T00:30:22.642Z,7.83333333333
2018-03-26T00:30:34.768Z,7.83333333333
2018-03-26T00:30:46.915Z,7.83333333333
2018-03-26T00:30:59.049Z,7.83333333333
2018-03-26T00:31:11.191Z,7.83333333333
2018-03-26T00:31:23.332Z,7.83333333333
2018-03-26T00:31:35.475Z,7.83333333333
2018-03-26T00:31:47.615Z,7.83333333333
2018-03-26T00:31:59.761Z,7.83333333333
2018-03-26T00:32:11.898Z,7.83333333333
2018-03-26T00:32:24.050Z,7.83333333333
2018-03-26T00:32:36.194Z,7.83333333333
2018-03-26T00:32:48.347Z,7.83333333333
2018-03-26T00:33:00.522Z,7.83333333333
2018-03-26T00:33:12.655Z,7.83333333333
2018-03-26T00:33:24.780Z,7.83333333333
2018-03-26T00:33:36.913Z,7.83333333333
2018-03-26T00:33:49.049Z,7.83333333333
2018-03-26T00:34:01.196Z,7.83333333333
2018-03-26T00:34:13.343Z,7.83333333333
2018-03-26T00:34:25.567Z,7.83333333333
2018-03-26T00:34:37.721Z,7.83333333333
2018-03-26T00:34:50.114Z,7.83333333333
2018-03-26T00:35:02.511Z,7.83333333333
2018-03-26T00:35:14.632Z,7.83333333333
2018-03-26T00:35:26.778Z,7.88888888889
2018-03-26T00:35:38.929Z,7.83333333333
2018-03-26T00:35:51.054Z,7.83333333333
2018-03-26T00:36:03.206Z,7.83333333333
2018-03-26T00:36:15.405Z,7.83333333333
2018-03-26T00:36:27.554Z,7.83333333333
2018-03-26T00:36:39.697Z,7.83333333333
2018-03-26T00:36:51.888Z,7.83333333333
2018-03-26T00:37:04.088Z,7.83333333333
2018-03-26T00:37:16.232Z,7.83333333333
2018-03-26T00:37:28.430Z,7.83333333333
2018-03-26T00:37:40.666Z,7.83333333333
2018-03-26T00:37:52.829Z,7.83333333333
2018-03-26T00:38:04.972Z,7.83333333333
2018-03-26T00:38:17.102Z,7.83333333333
2018-03-26T00:38:29.247Z,7.83333333333
2018-03-26T00:38:41.459Z,7.83333333333
2018-03-26T00:38:53.616Z,7.83333333333
2018-03-26T00:39:05.765Z,7.83333333333
2018-03-26T00:39:17.922Z,7.83333333333
2018-03-26T00:39:30.072Z,7.83333333333
2018-03-26T00:39:42.202Z,7.83333333333
2018-03-26T00:39:54.345Z,7.83333333333
2018-03-26T00:40:06.483Z,7.83333333333
2018-03-26T00:40:18.684Z,7.83333333333
2018-03-26T00:40:30.837Z,7.83333333333
2018-03-26T00:40:42.989Z,7.83333333333
2018-03-26T00:40:55.129Z,7.83333333333
2018-03-26T00:41:07.255Z,7.83333333333
2018-03-26T00:41:19.614Z,7.83333333333
2018-03-26T00:41:31.826Z,7.83333333333
2018-03-26T00:41:43.977Z,7.83333333333
2018-03-26T00:41:56.114Z,7.83333333333
2018-03-26T00:42:08.259Z,7.83333333333
2018-03-26T00:42:20.419Z,7.83333333333
2018-03-26T00:42:32.555Z,7.83333333333
2018-03-26T00:42:44.701Z,7.83333333333
2018-03-26T00:42:56.843Z,7.77777777778
2018-03-26T00:43:09.018Z,7.83333333333
2018-03-26T00:43:21.175Z,7.83333333333
2018-03-26T00:43:33.322Z,7.83333333333
2018-03-26T00:43:45.486Z,7.83333333333
2018-03-26T00:43:57.625Z,7.83333333333
2018-03-26T00:44:09.785Z,7.77777777778
2018-03-26T00:44:21.965Z,7.83333333333
2018-03-26T00:44:34.097Z,7.77777777778
2018-03-26T00:44:46.244Z,7.83333333333
2018-03-26T00:44:58.383Z,7.77777777778
2018-03-26T00:45:10.517Z,7.83333333333
2018-03-26T00:45:22.646Z,7.83333333333
2018-03-26T00:45:34.774Z,7.83333333333
2018-03-26T00:45:46.942Z,7.77777777778
2018-03-26T00:45:59.071Z,7.77777777778
2018-03-26T00:46:11.631Z,7.77777777778
2018-03-26T00:46:23.760Z,7.77777777778
2018-03-26T00:46:35.905Z,7.77777777778
2018-03-26T00:46:48.044Z,7.77777777778
2018-03-26T00:47:00.193Z,7.77777777778
2018-03-26T00:47:12.331Z,7.77777777778
2018-03-26T00:47:24.531Z,7.77777777778
2018-03-26T00:47:36.679Z,7.77777777778
2018-03-26T00:47:48.798Z,7.77777777778
2018-03-26T00:48:01.121Z,7.77777777778
2018-03-26T00:48:13.278Z,7.77777777778
2018-03-26T00:48:25.419Z,7.77777777778
2018-03-26T00:48:37.579Z,7.77777777778
2018-03-26T00:48:49.724Z,7.77777777778
2018-03-26T00:49:01.936Z,7.77777777778
2018-03-26T00:49:14.119Z,7.77777777778
2018-03-26T00:49:26.280Z,7.77777777778
2018-03-26T00:49:38.454Z,7.77777777778
2018-03-26T00:49:50.593Z,7.77777777778
2018-03-26T00:50:02.739Z,7.77777777778
2018-03-26T00:50:14.921Z,7.77777777778
2018-03-26T00:50:27.115Z,7.77777777778
2018-03-26T00:50:39.279Z,7.77777777778
2018-03-26T00:50:51.412Z,7.77777777778
2018-03-26T00:51:03.551Z,7.77777777778
2018-03-26T00:51:15.711Z,7.77777777778
2018-03-26T00:51:27.848Z,7.77777777778
2018-03-26T00:51:39.983Z,7.77777777778
2018-03-26T00:51:52.141Z,7.77777777778
2018-03-26T00:52:04.263Z,7.77777777778
2018-03-26T00:52:16.406Z,7.77777777778
2018-03-26T00:52:28.543Z,7.77777777778
2018-03-26T00:52:40.678Z,7.77777777778
2018-03-26T00:52:53.020Z,7.77777777778
2018-03-26T00:53:05.207Z,7.77777777778
2018-03-26T00:53:17.340Z,7.72222222222
2018-03-26T00:53:29.475Z,7.77777777778
2018-03-26T00:53:41.606Z,7.72222222222
2018-03-26T00:53:53.748Z,7.77777777778
2018-03-26T00:54:05.885Z,7.72222222222
2018-03-26T00:54:18.054Z,7.72222222222
2018-03-26T00:54:30.213Z,7.72222222222
2018-03-26T00:54:42.347Z,7.72222222222
2018-03-26T00:54:54.594Z,7.77777777778
2018-03-26T00:55:06.801Z,7.72222222222
2018-03-26T00:55:18.923Z,7.72222222222
2018-03-26T00:55:31.146Z,7.72222222222
2018-03-26T00:55:43.270Z,7.72222222222
2018-03-26T00:55:55.433Z,7.72222222222
2018-03-26T00:56:07.563Z,7.77777777778
2018-03-26T00:56:19.695Z,7.72222222222
2018-03-26T00:56:31.990Z,7.72222222222
2018-03-26T00:56:44.130Z,7.72222222222
2018-03-26T00:56:56.349Z,7.72222222222
2018-03-26T00:57:08.729Z,7.72222222222
2018-03-26T00:57:20.855Z,7.66666666667
2018-03-26T00:57:33.012Z,7.72222222222
2018-03-26T00:57:45.145Z,7.72222222222
2018-03-26T00:57:57.268Z,7.66666666667
2018-03-26T00:58:09.420Z,7.72222222222
2018-03-26T00:58:21.563Z,7.72222222222
2018-03-26T00:58:33.687Z,7.72222222222
2018-03-26T00:58:45.852Z,7.72222222222
2018-03-26T00:58:57.980Z,7.66666666667
2018-03-26T00:59:10.119Z,7.66666666667
2018-03-26T00:59:22.266Z,7.66666666667
2018-03-26T00:59:34.408Z,7.72222222222
2018-03-26T00:59:46.553Z,7.66666666667
2018-03-26T00:59:58.683Z,7.66666666667
2018-03-26T01:00:10.826Z,7.66666666667
2018-03-26T01:00:23.012Z,7.66666666667
2018-03-26T01:00:35.155Z,7.66666666667
2018-03-26T01:00:47.639Z,7.66666666667
2018-03-26T01:00:59.770Z,7.66666666667
2018-03-26T01:01:11.920Z,7.66666666667
2018-03-26T01:01:24.094Z,7.66666666667
2018-03-26T01:01:36.248Z,7.66666666667
2018-03-26T01:01:48.373Z,7.66666666667
2018-03-26T01:02:00.511Z,7.66666666667
2018-03-26T01:02:12.694Z,7.66666666667
2018-03-26T01:02:25.355Z,7.66666666667
2018-03-26T01:02:37.496Z,7.66666666667
2018-03-26T01:02:49.663Z,7.66666666667
2018-03-26T01:03:01.801Z,7.66666666667
2018-03-26T01:03:13.947Z,7.66666666667
2018-03-26T01:03:26.079Z,7.66666666667
2018-03-26T01:03:38.225Z,7.66666666667
2018-03-26T01:03:50.388Z,7.66666666667
2018-03-26T01:04:02.524Z,7.66666666667
2018-03-26T01:04:14.659Z,7.66666666667
2018-03-26T01:04:26.826Z,7.66666666667
2018-03-26T01:04:38.974Z,7.66666666667
2018-03-26T01:04:51.117Z,7.66666666667
2018-03-26T01:05:03.270Z,7.61111111111
2018-03-26T01:05:15.425Z,7.66666666667
2018-03-26T01:05:27.564Z,7.66666666667
2018-03-26T01:05:39.699Z,7.66666666667
2018-03-26T01:05:51.848Z,7.61111111111
2018-03-26T01:06:03.978Z,7.66666666667
2018-03-26T01:06:16.153Z,7.66666666667
2018-03-26T01:06:28.299Z,7.66666666667
2018-03-26T01:06:40.437Z,7.66666666667
2018-03-26T01:06:52.572Z,7.66666666667
2018-03-26T01:07:04.800Z,7.66666666667
2018-03-26T01:07:16.927Z,7.61111111111
2018-03-26T01:07:29.063Z,7.66666666667
2018-03-26T01:07:41.203Z,7.61111111111
2018-03-26T01:07:53.336Z,7.66666666667
2018-03-26T01:08:05.470Z,7.61111111111
2018-03-26T01:08:17.591Z,7.61111111111
2018-03-26T01:08:29.760Z,7.61111111111
2018-03-26T01:08:41.966Z,7.61111111111
2018-03-26T01:08:54.113Z,7.61111111111
2018-03-26T01:09:06.344Z,7.61111111111
2018-03-26T01:09:18.501Z,7.61111111111
2018-03-26T01:09:30.653Z,7.66666666667
2018-03-26T01:09:42.798Z,7.61111111111
2018-03-26T01:09:54.996Z,7.61111111111
2018-03-26T01:10:07.177Z,7.61111111111
2018-03-26T01:10:19.322Z,7.61111111111
2018-03-26T01:10:31.473Z,7.61111111111
2018-03-26T01:10:43.629Z,7.61111111111
2018-03-26T01:10:55.749Z,7.61111111111
2018-03-26T01:11:07.902Z,7.61111111111
2018-03-26T01:11:20.057Z,7.61111111111
2018-03-26T01:11:32.306Z,7.61111111111
2018-03-26T01:11:44.474Z,7.61111111111
2018-03-26T01:11:56.633Z,7.61111111111
2018-03-26T01:12:08.861Z,7.61111111111
2018-03-26T01:12:21.013Z,7.61111111111
2018-03-26T01:12:33.181Z,7.61111111111
2018-03-26T01:12:45.326Z,7.61111111111
2018-03-26T01:12:57.768Z,7.61111111111
2018-03-26T01:13:10.214Z,7.55555555556
2018-03-26T01:13:22.339Z,7.55555555556
2018-03-26T01:13:34.480Z,7.55555555556
2018-03-26T01:13:46.633Z,7.55555555556
2018-03-26T01:13:58.777Z,7.55555555556
2018-03-26T01:14:10.916Z,7.55555555556
2018-03-26T01:14:23.055Z,7.55555555556
2018-03-26T01:14:35.199Z,7.55555555556
2018-03-26T01:14:47.337Z,7.55555555556
2018-03-26T01:14:59.507Z,7.55555555556
2018-03-26T01:15:11.652Z,7.55555555556
2018-03-26T01:15:23.793Z,7.55555555556
2018-03-26T01:15:35.939Z,7.55555555556
2018-03-26T01:15:48.069Z,7.55555555556
2018-03-26T01:16:00.202Z,7.5
2018-03-26T01:16:12.348Z,7.55555555556
2018-03-26T01:16:24.523Z,7.55555555556
2018-03-26T01:16:36.662Z,7.55555555556
2018-03-26T01:16:48.797Z,7.55555555556
2018-03-26T01:17:00.942Z,7.55555555556
2018-03-26T01:17:13.065Z,7.55555555556
2018-03-26T01:17:25.217Z,7.5
2018-03-26T01:17:37.359Z,7.5
2018-03-26T01:17:49.742Z,7.5
2018-03-26T01:18:01.882Z,7.5
2018-03-26T01:18:14.032Z,7.5
2018-03-26T01:18:26.173Z,7.5
2018-03-26T01:18:38.332Z,7.5
2018-03-26T01:18:50.507Z,7.5
2018-03-26T01:19:02.654Z,7.5
2018-03-26T01:19:14.785Z,7.5
2018-03-26T01:19:26.907Z,7.5
2018-03-26T01:19:39.071Z,7.44444444444
2018-03-26T01:19:51.207Z,7.5
2018-03-26T01:20:03.346Z,7.5
2018-03-26T01:20:15.473Z,7.5
2018-03-26T01:20:27.635Z,7.5
2018-03-26T01:20:39.769Z,7.5
2018-03-26T01:20:51.918Z,7.5
2018-03-26T01:21:04.043Z,7.44444444444
2018-03-26T01:21:16.177Z,7.44444444444
2018-03-26T01:21:28.326Z,7.44444444444
2018-03-26T01:21:40.481Z,7.44444444444
2018-03-26T01:21:52.616Z,7.5
2018-03-26T01:22:04.757Z,7.44444444444
2018-03-26T01:22:16.900Z,7.5
2018-03-26T01:22:29.045Z,7.44444444444
2018-03-26T01:22:41.176Z,7.5
2018-03-26T01:22:53.381Z,7.5
2018-03-26T01:23:05.525Z,7.44444444444
2018-03-26T01:23:17.658Z,7.5
2018-03-26T01:23:29.810Z,7.44444444444
2018-03-26T01:23:41.937Z,7.44444444444
2018-03-26T01:23:54.078Z,7.44444444444
2018-03-26T01:24:06.241Z,7.44444444444
2018-03-26T01:24:18.380Z,7.44444444444
2018-03-26T01:24:30.501Z,7.44444444444
2018-03-26T01:24:42.633Z,7.44444444444
2018-03-26T01:24:54.761Z,7.44444444444
2018-03-26T01:25:06.886Z,7.44444444444
2018-03-26T01:25:19.033Z,7.44444444444
2018-03-26T01:25:31.218Z,7.44444444444
2018-03-26T01:25:43.345Z,7.44444444444
2018-03-26T01:25:55.476Z,7.44444444444
2018-03-26T01:26:07.607Z,7.44444444444
2018-03-26T01:26:19.746Z,7.44444444444
2018-03-26T01:26:31.892Z,7.44444444444
2018-03-26T01:26:44.045Z,7.44444444444
2018-03-26T01:26:56.164Z,7.44444444444
2018-03-26T01:27:08.317Z,7.44444444444
2018-03-26T01:27:20.450Z,7.44444444444
2018-03-26T01:27:32.592Z,7.44444444444
2018-03-26T01:27:44.735Z,7.44444444444
2018-03-26T01:27:57.065Z,7.44444444444
2018-03-26T01:28:09.210Z,7.38888888889
2018-03-26T01:28:21.376Z,7.44444444444
2018-03-26T01:28:33.507Z,7.44444444444
2018-03-26T01:28:45.652Z,7.44444444444
2018-03-26T01:28:57.776Z,7.44444444444
2018-03-26T01:29:09.969Z,7.44444444444
2018-03-26T01:29:22.101Z,7.44444444444
2018-03-26T01:29:34.240Z,7.44444444444
2018-03-26T01:29:46.402Z,7.44444444444
2018-03-26T01:29:58.561Z,7.44444444444
2018-03-26T01:30:10.696Z,7.38888888889
2018-03-26T01:30:22.842Z,7.38888888889
2018-03-26T01:30:35.000Z,7.44444444444
2018-03-26T01:30:47.138Z,7.38888888889
2018-03-26T01:30:59.271Z,7.38888888889
2018-03-26T01:31:11.427Z,7.38888888889
2018-03-26T01:31:23.553Z,7.44444444444
2018-03-26T01:31:35.694Z,7.38888888889
2018-03-26T01:31:47.841Z,7.38888888889
2018-03-26T01:31:59.976Z,7.38888888889
2018-03-26T01:32:12.144Z,7.38888888889
2018-03-26T01:32:24.290Z,7.44444444444
2018-03-26T01:32:36.427Z,7.38888888889
2018-03-26T01:32:48.556Z,7.38888888889
2018-03-26T01:33:00.677Z,7.38888888889
2018-03-26T01:33:12.813Z,7.38888888889
2018-03-26T01:33:24.989Z,7.38888888889
2018-03-26T01:33:37.131Z,7.38888888889
2018-03-26T01:33:49.284Z,7.38888888889
2018-03-26T01:34:01.420Z,7.38888888889
2018-03-26T01:34:13.555Z,7.38888888889
2018-03-26T01:34:25.706Z,7.38888888889
2018-03-26T01:34:37.837Z,7.38888888889
2018-03-26T01:34:49.999Z,7.38888888889
2018-03-26T01:35:02.195Z,7.38888888889
2018-03-26T01:35:14.321Z,7.38888888889
2018-03-26T01:35:26.436Z,7.38888888889
2018-03-26T01:35:38.590Z,7.38888888889
2018-03-26T01:35:50.712Z,7.38888888889
2018-03-26T01:36:02.851Z,7.38888888889
2018-03-26T01:36:14.998Z,7.33333333333
2018-03-26T01:36:27.196Z,7.38888888889
2018-03-26T01:36:39.397Z,7.38888888889
2018-03-26T01:36:51.524Z,7.33333333333
2018-03-26T01:37:03.665Z,7.33333333333
2018-03-26T01:37:15.818Z,7.38888888889
2018-03-26T01:37:27.950Z,7.38888888889
2018-03-26T01:37:40.244Z,7.33333333333
2018-03-26T01:37:52.389Z,7.38888888889
2018-03-26T01:38:04.543Z,7.33333333333
2018-03-26T01:38:16.661Z,7.33333333333
2018-03-26T01:38:28.794Z,7.33333333333
2018-03-26T01:38:40.924Z,7.38888888889
2018-03-26T01:38:53.108Z,7.33333333333
2018-03-26T01:39:05.274Z,7.33333333333
2018-03-26T01:39:17.420Z,7.33333333333
2018-03-26T01:39:29.695Z,7.33333333333
2018-03-26T01:39:41.842Z,7.33333333333
2018-03-26T01:39:54.002Z,7.33333333333
2018-03-26T01:40:06.169Z,7.33333333333
2018-03-26T01:40:18.375Z,7.33333333333
2018-03-26T01:40:30.504Z,7.33333333333
2018-03-26T01:40:42.631Z,7.33333333333
2018-03-26T01:40:54.790Z,7.33333333333
2018-03-26T01:41:06.921Z,7.33333333333
2018-03-26T01:41:19.224Z,7.33333333333
2018-03-26T01:41:31.367Z,7.33333333333
2018-03-26T01:41:43.506Z,7.33333333333
2018-03-26T01:41:55.655Z,7.33333333333
2018-03-26T01:42:07.804Z,7.33333333333
2018-03-26T01:42:19.950Z,7.33333333333
2018-03-26T01:42:32.082Z,7.33333333333
2018-03-26T01:42:44.250Z,7.33333333333
2018-03-26T01:42:56.390Z,7.33333333333
2018-03-26T01:43:08.582Z,7.33333333333
2018-03-26T01:43:20.836Z,7.33333333333
2018-03-26T01:43:32.958Z,7.33333333333
2018-03-26T01:43:45.089Z,7.33333333333
2018-03-26T01:43:57.234Z,7.33333333333
2018-03-26T01:44:09.356Z,7.33333333333
2018-03-26T01:44:21.489Z,7.33333333333
2018-03-26T01:44:33.627Z,7.33333333333
2018-03-26T01:44:45.769Z,7.33333333333
2018-03-26T01:44:57.919Z,7.33333333333
2018-03-26T01:45:10.071Z,7.33333333333
2018-03-26T01:45:22.210Z,7.33333333333
2018-03-26T01:45:34.344Z,7.33333333333
2018-03-26T01:45:46.489Z,7.33333333333
2018-03-26T01:45:58.626Z,7.33333333333
2018-03-26T01:46:10.761Z,7.27777777778
2018-03-26T01:46:22.924Z,7.33333333333
2018-03-26T01:46:35.049Z,7.27777777778
2018-03-26T01:46:47.196Z,7.33333333333
2018-03-26T01:46:59.383Z,7.27777777778
2018-03-26T01:47:11.532Z,7.27777777778
2018-03-26T01:47:23.670Z,7.27777777778
2018-03-26T01:47:35.830Z,7.27777777778
2018-03-26T01:47:47.961Z,7.27777777778
2018-03-26T01:48:00.263Z,7.27777777778
2018-03-26T01:48:12.417Z,7.33333333333
2018-03-26T01:48:24.572Z,7.27777777778
2018-03-26T01:48:36.737Z,7.27777777778
2018-03-26T01:48:48.884Z,7.27777777778
2018-03-26T01:49:01.005Z,7.27777777778
2018-03-26T01:49:13.162Z,7.27777777778
2018-03-26T01:49:25.314Z,7.27777777778
2018-03-26T01:49:37.443Z,7.27777777778
2018-03-26T01:49:49.585Z,7.27777777778
2018-03-26T01:50:01.715Z,7.27777777778
2018-03-26T01:50:13.864Z,7.27777777778
2018-03-26T01:50:26.022Z,7.27777777778
2018-03-26T01:50:38.171Z,7.27777777778
2018-03-26T01:50:50.308Z,7.27777777778
2018-03-26T01:51:02.444Z,7.27777777778
2018-03-26T01:51:14.580Z,7.27777777778
2018-03-26T01:51:26.743Z,7.27777777778
2018-03-26T01:51:38.899Z,7.27777777778
2018-03-26T01:51:51.032Z,7.27777777778
2018-03-26T01:52:03.212Z,7.33333333333
2018-03-26T01:52:15.492Z,7.27777777778
2018-03-26T01:52:27.662Z,7.27777777778
2018-03-26T01:52:39.867Z,7.27777777778
2018-03-26T01:52:52.189Z,7.33333333333
2018-03-26T01:53:04.331Z,7.22222222222
2018-03-26T01:53:16.471Z,7.27777777778
2018-03-26T01:53:28.646Z,7.27777777778
2018-03-26T01:53:40.791Z,7.27777777778
2018-03-26T01:53:52.912Z,7.27777777778
2018-03-26T01:54:05.175Z,7.27777777778
2018-03-26T01:54:17.305Z,7.27777777778
2018-03-26T01:54:29.504Z,7.27777777778
2018-03-26T01:54:41.634Z,7.27777777778
2018-03-26T01:54:53.948Z,7.27777777778
2018-03-26T01:55:06.112Z,7.27777777778
2018-03-26T01:55:18.241Z,7.27777777778
2018-03-26T01:55:30.375Z,7.22222222222
2018-03-26T01:55:42.521Z,7.27777777778
2018-03-26T01:55:54.737Z,7.27777777778
2018-03-26T01:56:06.871Z,7.27777777778
2018-03-26T01:56:19.025Z,7.27777777778
2018-03-26T01:56:31.161Z,7.27777777778
2018-03-26T01:56:43.599Z,7.27777777778
2018-03-26T01:56:55.732Z,7.27777777778
2018-03-26T01:57:07.871Z,7.27777777778
2018-03-26T01:57:20.006Z,7.27777777778
2018-03-26T01:57:32.145Z,7.27777777778
2018-03-26T01:57:44.266Z,7.27777777778
2018-03-26T01:57:56.404Z,7.27777777778
2018-03-26T01:58:08.546Z,7.27777777778
2018-03-26T01:58:20.671Z,7.27777777778
2018-03-26T01:58:32.812Z,7.27777777778
2018-03-26T01:58:44.968Z,7.27777777778
2018-03-26T01:58:57.137Z,7.27777777778
2018-03-26T01:59:09.607Z,7.27777777778
2018-03-26T01:59:21.751Z,7.27777777778
2018-03-26T01:59:33.897Z,7.27777777778
2018-03-26T01:59:46.023Z,7.27777777778
2018-03-26T01:59:58.186Z,7.27777777778
2018-03-26T02:00:10.368Z,7.27777777778
2018-03-26T02:00:22.545Z,7.27777777778
2018-03-26T02:00:34.714Z,7.22222222222
2018-03-26T02:00:47.201Z,7.27777777778
2018-03-26T02:00:59.348Z,7.27777777778
2018-03-26T02:01:11.501Z,7.27777777778
2018-03-26T02:01:23.649Z,7.27777777778
2018-03-26T02:01:35.806Z,7.27777777778
2018-03-26T02:01:47.951Z,7.27777777778
2018-03-26T02:02:00.078Z,7.27777777778
2018-03-26T02:02:12.243Z,7.27777777778
2018-03-26T02:02:24.559Z,7.27777777778
2018-03-26T02:02:36.689Z,7.22222222222
2018-03-26T02:02:48.829Z,7.27777777778
2018-03-26T02:03:01.057Z,7.27777777778
2018-03-26T02:03:13.212Z,7.22222222222
2018-03-26T02:03:25.348Z,7.22222222222
2018-03-26T02:03:37.474Z,7.27777777778
2018-03-26T02:03:49.625Z,7.27777777778
2018-03-26T02:04:01.755Z,7.27777777778
2018-03-26T02:04:13.907Z,7.27777777778
2018-03-26T02:04:26.046Z,7.22222222222
2018-03-26T02:04:38.214Z,7.27777777778
2018-03-26T02:04:50.806Z,7.22222222222
2018-03-26T02:05:02.949Z,7.22222222222
2018-03-26T02:05:15.098Z,7.27777777778
2018-03-26T02:05:27.228Z,7.22222222222
2018-03-26T02:05:39.436Z,7.27777777778